createdAt,value
2022-10-11T13:01:08.509Z,12.74
2022-10-11T13:04:51.378Z,12.78
2022-10-11T13:07:34.039Z,12.75
2022-10-11T13:11:04.148Z,12.88
2022-10-11T13:18:15.508Z,13.08
2022-10-11T13:29:14.634Z,13.08
2022-10-11T13:36:51.861Z,13.04
2022-10-11T13:40:09.571Z,13.04
2022-10-11T13:46:42.117Z,13.07
2022-10-11T13:50:22.752Z,13.12
2022-10-11T14:00:17.997Z,13.18
2022-10-11T14:03:52.448Z,13.10
2022-10-11T14:08:26.754Z,13.09
2022-10-11T14:14:21.773Z,13.13
2022-10-11T14:18:15.079Z,13.02
2022-10-11T14:21:09.515Z,13.01
2022-10-11T14:37:03.571Z,12.79
2022-10-11T14:47:49.676Z,12.73
2022-10-11T14:50:18.266Z,12.71
2022-10-11T14:54:25.932Z,12.68
2022-10-11T14:56:43.244Z,12.65
2022-10-11T14:59:44.000Z,12.67
2022-10-11T15:02:57.383Z,12.68
2022-10-11T15:09:35.279Z,12.70
2022-10-11T15:15:33.363Z,12.62
2022-10-11T15:18:48.232Z,12.60
2022-10-11T15:25:42.967Z,12.58
2022-10-11T15:29:04.206Z,12.57
2022-10-11T15:31:54.153Z,12.58
2022-10-11T15:37:14.891Z,12.55
2022-10-11T15:40:13.546Z,12.52
2022-10-11T15:44:45.882Z,12.54
2022-10-11T15:47:32.440Z,12.50
2022-10-11T15:51:12.187Z,12.44
2022-10-11T15:54:13.274Z,12.37
2022-10-11T15:57:12.705Z,12.37
2022-10-11T16:00:41.119Z,12.33
2022-10-11T16:03:32.755Z,12.31
2022-10-11T16:09:39.697Z,12.23
2022-10-11T16:16:20.586Z,12.17
2022-10-11T16:23:13.320Z,12.09
2022-10-11T16:26:26.476Z,12.02
2022-10-11T16:29:34.863Z,11.99
2022-10-11T16:32:34.466Z,11.96
2022-10-11T16:39:11.986Z,11.89
2022-10-11T16:51:41.214Z,11.70
2022-10-11T16:54:52.473Z,11.67
2022-10-11T16:57:48.679Z,11.63
2022-10-11T17:01:00.550Z,11.60
2022-10-11T17:04:15.252Z,11.62
2022-10-11T17:07:21.864Z,11.53
2022-10-11T17:10:33.017Z,11.54
2022-10-11T17:14:14.530Z,11.43
2022-10-11T17:22:09.893Z,11.24
2022-10-11T17:24:59.791Z,11.18
2022-10-11T17:31:49.329Z,10.99
2022-10-11T17:38:52.163Z,10.87
2022-10-11T17:41:42.086Z,10.73
2022-10-11T17:44:44.357Z,10.65
2022-10-11T17:47:48.964Z,10.62
2022-10-11T17:50:50.409Z,10.48
2022-10-11T17:54:07.956Z,10.39
2022-10-11T17:56:52.347Z,10.32
2022-10-11T17:59:53.076Z,10.27
2022-10-11T18:02:59.106Z,10.21
2022-10-11T18:05:46.011Z,10.11
2022-10-11T18:08:55.668Z,10.02
2022-10-11T18:11:38.429Z,9.97
2022-10-11T18:14:14.887Z,9.91
2022-10-11T18:17:51.098Z,9.84
2022-10-11T18:20:32.998Z,9.74
2022-10-11T18:23:56.009Z,9.67
2022-10-11T18:30:26.216Z,9.56
2022-10-11T18:33:15.511Z,9.52
2022-10-11T18:36:21.285Z,9.45
2022-10-11T18:42:57.653Z,9.38
2022-10-11T18:45:35.793Z,9.35
2022-10-11T18:48:25.649Z,9.31
2022-10-11T18:51:46.544Z,9.28
2022-10-11T18:55:01.790Z,9.28
2022-10-11T18:57:52.632Z,9.21
2022-10-11T19:01:41.069Z,9.21
2022-10-11T19:04:31.289Z,9.12
2022-10-11T19:10:38.947Z,8.94
2022-10-11T19:13:50.855Z,8.85
2022-10-11T19:20:48.636Z,8.76
2022-10-11T19:23:49.296Z,8.75
2022-10-11T19:31:14.348Z,8.70
2022-10-11T19:35:07.922Z,8.61
2022-10-11T19:36:52.788Z,8.60
2022-10-11T19:40:35.863Z,8.51
2022-10-11T19:48:06.513Z,8.39
2022-10-11T19:51:15.273Z,8.37
2022-10-11T19:54:01.075Z,8.33
2022-10-11T19:57:22.736Z,8.24
2022-10-11T20:00:34.949Z,8.23
2022-10-11T20:24:15.681Z,7.78
2022-10-11T20:27:24.169Z,7.74
2022-10-11T20:30:53.471Z,7.68
2022-10-11T20:33:42.820Z,7.70
2022-10-11T20:40:02.888Z,7.52
2022-10-11T20:43:31.833Z,7.42
2022-10-11T20:50:18.447Z,7.31
2022-10-11T20:56:46.748Z,7.15
2022-10-11T21:03:31.176Z,7.06
2022-10-11T21:06:59.818Z,6.99
2022-10-11T21:13:14.489Z,6.89
2022-10-11T21:16:53.377Z,6.93
2022-10-11T21:20:01.215Z,6.86
2022-10-11T21:32:47.642Z,6.75
2022-10-11T21:35:41.259Z,6.72
2022-10-11T21:38:46.209Z,6.70
2022-10-11T21:41:59.386Z,6.64
2022-10-11T21:44:43.578Z,6.59
2022-10-11T21:47:39.307Z,6.56
2022-10-11T21:50:24.197Z,6.49
2022-10-11T21:53:04.105Z,6.46
2022-10-11T21:55:45.091Z,6.33
2022-10-11T21:58:34.128Z,6.32
2022-10-11T22:01:40.123Z,6.32
2022-10-11T22:04:40.990Z,6.28
2022-10-11T22:07:37.655Z,6.25
2022-10-11T22:10:43.930Z,6.28
2022-10-11T22:17:32.974Z,6.17
2022-10-11T22:22:17.111Z,6.12
2022-10-11T22:24:03.603Z,6.14
2022-10-11T22:27:04.027Z,6.10
2022-10-11T22:30:07.080Z,6.00
2022-10-11T22:32:50.449Z,6.05
2022-10-11T22:35:58.380Z,5.97
2022-10-11T22:39:08.282Z,5.93
2022-10-11T22:42:09.150Z,5.84
2022-10-11T22:44:58.643Z,5.81
2022-10-11T22:47:56.327Z,5.80
2022-10-11T22:50:44.468Z,5.76
2022-10-11T22:55:21.920Z,5.76
2022-10-11T22:57:16.810Z,5.71
2022-10-11T23:00:13.584Z,5.62
2022-10-11T23:03:07.246Z,5.60
2022-10-11T23:06:12.088Z,5.60
2022-10-11T23:09:07.098Z,5.56
2022-10-11T23:12:09.312Z,5.56
2022-10-11T23:14:55.409Z,5.55
2022-10-11T23:17:56.969Z,5.56
2022-10-11T23:20:42.737Z,5.52
2022-10-11T23:23:30.722Z,5.45
2022-10-11T23:26:29.097Z,5.46
2022-10-11T23:29:31.631Z,5.40
2022-10-11T23:32:11.361Z,5.38
2022-10-11T23:34:57.682Z,5.44
2022-10-11T23:37:52.006Z,5.40
2022-10-11T23:40:31.470Z,5.37
2022-10-11T23:43:23.748Z,5.43
2022-10-11T23:46:06.463Z,5.40
2022-10-11T23:49:09.237Z,5.34
2022-10-11T23:51:50.947Z,5.34
2022-10-11T23:54:44.406Z,5.38
2022-10-11T23:57:30.021Z,5.32
